createdAt,value
2023-02-06T00:00:12.842Z,17.2
2023-02-06T00:01:24.993Z,17.5
2023-02-06T00:02:33.311Z,19.2
2023-02-06T00:03:42.060Z,18.4
2023-02-06T00:04:50.409Z,18.4
2023-02-06T00:05:58.303Z,18.9
2023-02-06T00:07:05.963Z,18
2023-02-06T00:08:14.325Z,17.9
2023-02-06T00:09:23.526Z,17.4
2023-02-06T00:10:31.809Z,17.3
2023-02-06T00:11:39.962Z,17.6
2023-02-06T00:12:51.580Z,17.5
2023-02-06T00:13:58.990Z,17.4
2023-02-06T00:15:08.749Z,17.1
2023-02-06T00:16:17.293Z,16.1
2023-02-06T00:17:30.021Z,16.3
2023-02-06T00:18:42.268Z,18.2
2023-02-06T00:19:49.864Z,17.6
2023-02-06T00:20:59.313Z,17.1
2023-02-06T00:22:08.991Z,17.2
2023-02-06T00:23:18.124Z,17.7
2023-02-06T00:24:27.456Z,17.8
2023-02-06T00:25:38.355Z,17.2
2023-02-06T00:26:46.506Z,17.9
2023-02-06T00:27:54.812Z,17.5
2023-02-06T00:29:02.248Z,17.9
2023-02-06T00:30:10.556Z,18.7
2023-02-06T00:31:20.027Z,19.2
2023-02-06T00:32:31.245Z,18.6
2023-02-06T00:33:39.654Z,18.7
2023-02-06T00:34:48.343Z,18.3
2023-02-06T00:35:58.828Z,19.2
2023-02-06T00:37:11.283Z,20.1
2023-02-06T00:38:20.342Z,19.2
2023-02-06T00:39:28.988Z,20
2023-02-06T00:40:37.812Z,19.9
2023-02-06T00:41:47.804Z,19.9
2023-02-06T00:42:57.297Z,19.1
2023-02-06T00:44:05.586Z,19.4
2023-02-06T00:45:14.772Z,19.7
2023-02-06T00:46:24.215Z,20.6
2023-02-06T00:47:34.701Z,21.7
2023-02-06T00:48:45.785Z,21.7
2023-02-06T00:49:54.757Z,22.4
2023-02-06T00:51:03.254Z,21
2023-02-06T00:52:12.506Z,23.2
2023-02-06T00:53:21.274Z,22.9
2023-02-06T00:54:29.798Z,22.8
2023-02-06T00:55:39.107Z,21.7
2023-02-06T00:56:48.219Z,22.7
2023-02-06T00:57:56.006Z,22.5
2023-02-06T00:59:04.568Z,22.4
2023-02-06T01:00:12.328Z,21.7
2023-02-06T01:01:21.560Z,22.5
2023-02-06T01:02:31.705Z,21.5
2023-02-06T01:03:40.108Z,21.3
2023-02-06T01:04:49.085Z,22.5
2023-02-06T01:05:58.920Z,25.7
2023-02-06T01:07:09.003Z,23.6
2023-02-06T01:08:19.070Z,23.5
2023-02-06T01:09:28.431Z,25.3
2023-02-06T01:10:36.946Z,24.3
2023-02-06T01:11:49.396Z,23.2
2023-02-06T01:12:58.964Z,23.1
2023-02-06T01:14:06.280Z,22.9
2023-02-06T01:15:14.754Z,23.8
2023-02-06T01:16:23.230Z,23.3
2023-02-06T01:17:31.540Z,24.9
2023-02-06T01:18:42.000Z,25.6
2023-02-06T01:19:51.613Z,24.7
2023-02-06T01:21:01.565Z,24.7
2023-02-06T01:22:13.826Z,25.6
2023-02-06T01:23:25.053Z,24.4
2023-02-06T01:24:34.213Z,24.2
2023-02-06T01:25:42.351Z,24.5
2023-02-06T01:26:53.164Z,25.4
2023-02-06T01:28:03.425Z,26
2023-02-06T01:29:11.454Z,26.6
2023-02-06T01:30:20.903Z,26.7
2023-02-06T01:31:29.446Z,27.4
2023-02-06T01:32:37.972Z,26.1
2023-02-06T01:33:46.101Z,26.3
2023-02-06T01:34:57.266Z,24.3
2023-02-06T01:36:09.072Z,25.6
2023-02-06T01:37:20.452Z,24.9
2023-02-06T01:38:29.314Z,25.4
2023-02-06T01:39:39.245Z,24.8
2023-02-06T01:40:48.033Z,24.3
2023-02-06T01:41:56.277Z,25.5
2023-02-06T01:43:05.095Z,25.1
2023-02-06T01:44:14.812Z,25.7
2023-02-06T01:45:23.620Z,24
2023-02-06T01:46:35.070Z,24.7
2023-02-06T01:47:47.538Z,24.5
2023-02-06T01:48:56.250Z,23.8
2023-02-06T01:50:06.493Z,24.8
2023-02-06T01:51:16.401Z,24.8
2023-02-06T01:52:26.006Z,24.6
2023-02-06T01:53:36.294Z,24.6
2023-02-06T01:54:45.878Z,24.8
2023-02-06T01:55:54.786Z,24.1
2023-02-06T01:57:04.937Z,23.3
2023-02-06T01:58:13.951Z,23.4
2023-02-06T01:59:24.226Z,24.1
2023-02-06T02:00:35.903Z,24
2023-02-06T02:01:45.898Z,23.6
2023-02-06T02:02:53.865Z,23.9
2023-02-06T02:04:01.938Z,23.5
2023-02-06T02:05:10.898Z,24.7
2023-02-06T02:06:20.261Z,23.2
2023-02-06T02:07:30.204Z,26.7
2023-02-06T02:08:41.422Z,26.3
2023-02-06T02:09:50.520Z,25.9
2023-02-06T02:10:59.071Z,25.2
2023-02-06T02:12:07.302Z,27
2023-02-06T02:13:16.160Z,27
2023-02-06T02:14:24.673Z,29.1
2023-02-06T02:15:32.656Z,26.8
2023-02-06T02:16:45.735Z,29.6
2023-02-06T02:18:05.156Z,27.2
2023-02-06T02:19:24.859Z,27.5
2023-02-06T02:20:44.351Z,28.4
2023-02-06T02:21:59.218Z,29.3
2023-02-06T02:23:20.231Z,27.2
2023-02-06T02:24:35.447Z,28.1
2023-02-06T02:25:55.875Z,27.9
2023-02-06T02:27:10.121Z,27.9
2023-02-06T02:28:23.548Z,27.9
2023-02-06T02:29:44.009Z,28.1
2023-02-06T02:31:03.036Z,26.3
2023-02-06T02:32:13.636Z,25.7
2023-02-06T02:33:34.102Z,26.7
2023-02-06T02:34:52.915Z,27.5
2023-02-06T02:36:03.835Z,25.1
2023-02-06T02:37:21.736Z,26
2023-02-06T02:38:41.309Z,26.3
2023-02-06T02:39:55.598Z,26.4
2023-02-06T02:41:05.073Z,25.9
2023-02-06T02:42:23.906Z,25.8
2023-02-06T02:43:32.687Z,25.2
2023-02-06T02:44:48.818Z,25.6
2023-02-06T02:46:05.061Z,24.1
2023-02-06T02:47:12.734Z,24.2
2023-02-06T02:48:22.155Z,23.8
2023-02-06T02:49:33.530Z,24.7
2023-02-06T02:50:44.771Z,23.9
2023-02-06T02:51:53.955Z,24.3
2023-02-06T02:53:01.876Z,25.6
2023-02-06T02:54:09.660Z,24.9
2023-02-06T02:55:17.065Z,24.6
2023-02-06T02:56:26.124Z,23.6
2023-02-06T02:57:36.151Z,23.4
2023-02-06T02:58:46.475Z,25.7
2023-02-06T03:00:02.005Z,25.4
2023-02-06T03:01:10.033Z,26.3
2023-02-06T03:02:18.737Z,25.6
2023-02-06T03:03:29.446Z,25.4
2023-02-06T03:04:37.141Z,26.5
2023-02-06T03:05:45.634Z,24.7
2023-02-06T03:06:59.319Z,26.2
2023-02-06T03:08:17.090Z,26
2023-02-06T03:09:31.243Z,25.6
2023-02-06T03:10:46.759Z,25.7
2023-02-06T03:11:59.814Z,26.3
2023-02-06T03:13:09.838Z,25.7
2023-02-06T03:14:25.634Z,25.8
2023-02-06T03:15:40.017Z,24.9
2023-02-06T03:16:57.262Z,25.1
2023-02-06T03:18:08.683Z,26.8
2023-02-06T03:19:17.364Z,26.9
2023-02-06T03:20:28.250Z,27.9
2023-02-06T03:21:39.090Z,28.1
2023-02-06T03:22:48.616Z,28.9
2023-02-06T03:23:55.954Z,28.7
2023-02-06T03:25:05.987Z,28.9
2023-02-06T03:26:15.106Z,27.8
2023-02-06T03:27:23.495Z,29.8
2023-02-06T03:28:33.459Z,29.7
2023-02-06T03:29:46.402Z,32
2023-02-06T03:30:56.050Z,31.4
2023-02-06T03:32:03.670Z,31.8
2023-02-06T03:33:16.311Z,31.5
2023-02-06T03:34:23.942Z,30.9
2023-02-06T03:35:41.247Z,32.4
2023-02-06T03:36:49.719Z,30.2
2023-02-06T03:37:58.118Z,30.4
2023-02-06T03:39:07.257Z,31.5
2023-02-06T03:40:17.736Z,29.6
2023-02-06T03:41:27.226Z,30.7
2023-02-06T03:42:35.683Z,31.8
2023-02-06T03:43:44.849Z,29.7
2023-02-06T03:44:54.215Z,31.2
2023-02-06T03:46:04.591Z,29
2023-02-06T03:47:13.419Z,28.6
2023-02-06T03:48:25.751Z,29
2023-02-06T03:49:36.958Z,28.9
2023-02-06T03:50:46.008Z,29
2023-02-06T03:51:56.347Z,28.9
2023-02-06T03:53:05.354Z,27.6
2023-02-06T03:54:14.043Z,28
2023-02-06T03:55:22.583Z,27.6
2023-02-06T03:56:31.810Z,28.9
2023-02-06T03:57:43.845Z,28.2
2023-02-06T03:58:51.283Z,26.9
2023-02-06T04:00:01.478Z,27.6
2023-02-06T04:01:11.372Z,28
2023-02-06T04:02:20.762Z,28.1
2023-02-06T04:03:31.273Z,26.8
2023-02-06T04:04:41.720Z,28
2023-02-06T04:05:50.711Z,26.8
2023-02-06T04:07:01.485Z,26.8
2023-02-06T04:08:18.100Z,28
2023-02-06T04:09:26.180Z,29.8
2023-02-06T04:10:36.452Z,29.5
2023-02-06T04:11:44.444Z,27.6
2023-02-06T04:12:52.892Z,29.8
2023-02-06T04:14:02.352Z,30.9
2023-02-06T04:15:10.872Z,30.3
2023-02-06T04:16:20.066Z,28.5
2023-02-06T04:17:43.471Z,31.5
2023-02-06T04:18:37.960Z,31
2023-02-06T04:19:49.099Z,30.6
2023-02-06T04:20:59.349Z,29.7
2023-02-06T04:22:11.597Z,31.8
2023-02-06T04:23:20.694Z,32.3
2023-02-06T04:24:31.068Z,32.3
2023-02-06T04:25:40.398Z,32.5
2023-02-06T04:26:48.113Z,32
2023-02-06T04:27:57.643Z,30.5
2023-02-06T04:29:08.792Z,30.5
2023-02-06T04:30:19.346Z,33.4
2023-02-06T04:31:27.050Z,30.9
2023-02-06T04:32:36.658Z,30.6
2023-02-06T04:33:44.542Z,30
2023-02-06T04:34:53.203Z,31.1
2023-02-06T04:36:03.588Z,30.9
2023-02-06T04:37:13.940Z,29.5
2023-02-06T04:38:22.732Z,33.3
2023-02-06T04:39:33.064Z,32.3
2023-02-06T04:40:42.139Z,32
2023-02-06T04:41:51.779Z,32.9
2023-02-06T04:43:00.850Z,34.8
2023-02-06T04:44:11.040Z,34.5
2023-02-06T04:45:20.979Z,33.5
2023-02-06T04:46:29.569Z,33.1
2023-02-06T04:47:38.626Z,33.7
2023-02-06T04:48:48.781Z,34.4
2023-02-06T04:49:58.342Z,35.5
2023-02-06T04:51:07.704Z,35.1
2023-02-06T04:52:16.267Z,35.4
2023-02-06T04:53:26.696Z,35.4
2023-02-06T04:54:37.354Z,35.5
2023-02-06T04:55:47.476Z,36.2
2023-02-06T04:56:56.989Z,35.2
2023-02-06T04:58:07.020Z,35.3
2023-02-06T04:59:17.297Z,35.1
2023-02-06T05:00:25.007Z,36.4
2023-02-06T05:01:33.420Z,36.7
2023-02-06T05:02:41.380Z,35.2
2023-02-06T05:03:50.214Z,39.2
2023-02-06T05:04:58.282Z,37.3
2023-02-06T05:06:07.092Z,39.4
2023-02-06T05:07:16.357Z,37.1
2023-02-06T05:08:24.744Z,37.7
2023-02-06T05:09:35.132Z,37.9
2023-02-06T05:10:43.767Z,40.8
2023-02-06T05:11:52.475Z,40.2
2023-02-06T05:13:00.928Z,51.1
2023-02-06T05:14:10.374Z,71.7
2023-02-06T05:15:19.128Z,69
2023-02-06T05:16:28.180Z,65.9
2023-02-06T05:17:37.397Z,62.6
2023-02-06T05:18:46.726Z,42.3
2023-02-06T05:19:59.682Z,42.3
2023-02-06T05:21:07.968Z,35
2023-02-06T05:22:18.257Z,35.5
2023-02-06T05:23:25.811Z,34.7
2023-02-06T05:24:35.380Z,36.2
2023-02-06T05:25:44.385Z,36.9
2023-02-06T05:26:53.364Z,35.9
2023-02-06T05:28:03.698Z,37.5
2023-02-06T05:29:14.426Z,37.5
2023-02-06T05:30:23.066Z,37.2
2023-02-06T05:31:32.652Z,37.2
2023-02-06T05:32:41.800Z,40.4
2023-02-06T05:33:52.626Z,39.8
2023-02-06T05:35:02.724Z,40.2
2023-02-06T05:36:12.141Z,39.4
2023-02-06T05:37:21.810Z,42.4
2023-02-06T05:38:32.485Z,41
2023-02-06T05:39:41.933Z,41.4
2023-02-06T05:40:52.238Z,42.7
2023-02-06T05:42:02.980Z,42.6
2023-02-06T05:43:12.074Z,41.3
2023-02-06T05:44:21.266Z,42.2
2023-02-06T05:45:35.139Z,42.4
2023-02-06T05:46:41.158Z,41.4
2023-02-06T05:47:48.424Z,40.9
2023-02-06T05:48:58.171Z,39.5
2023-02-06T05:50:08.001Z,40.9
2023-02-06T05:51:16.255Z,40.5
2023-02-06T05:52:26.202Z,37.7
2023-02-06T05:53:35.304Z,39.9
2023-02-06T05:54:44.528Z,38.1
2023-02-06T05:55:52.044Z,36.8
2023-02-06T05:57:01.584Z,35.6
2023-02-06T05:58:09.456Z,34.9
2023-02-06T05:59:17.837Z,33.7
2023-02-06T06:00:25.949Z,34.9
2023-02-06T06:01:33.991Z,32.4
2023-02-06T06:02:42.090Z,37.8
2023-02-06T06:03:50.980Z,38.5
2023-02-06T06:05:01.494Z,38.3
2023-02-06T06:06:08.806Z,37.4
2023-02-06T06:07:17.236Z,38.7
2023-02-06T06:08:24.679Z,38.6
2023-02-06T06:09:32.923Z,37
2023-02-06T06:10:41.822Z,37.9
2023-02-06T06:11:49.187Z,36.6
2023-02-06T06:12:56.700Z,38
2023-02-06T06:14:04.985Z,35.9
2023-02-06T06:15:13.056Z,36.8
2023-02-06T06:16:22.496Z,36.6
2023-02-06T06:17:31.760Z,36.3
2023-02-06T06:18:41.444Z,38
2023-02-06T06:19:51.132Z,38.9
2023-02-06T06:21:02.078Z,36.5
2023-02-06T06:22:12.317Z,35.1
2023-02-06T06:23:22.312Z,38.2
2023-02-06T06:24:29.801Z,36
2023-02-06T06:25:38.944Z,37.3
2023-02-06T06:26:48.129Z,35.4
2023-02-06T06:27:56.009Z,36
2023-02-06T06:29:04.572Z,34.1
2023-02-06T06:30:13.337Z,33.9
2023-02-06T06:31:21.343Z,34.1
2023-02-06T06:32:30.184Z,34.6
2023-02-06T06:33:38.136Z,33.1
2023-02-06T06:34:47.092Z,33.1
2023-02-06T06:35:54.780Z,34.1
2023-02-06T06:37:04.380Z,33.3
2023-02-06T06:38:12.935Z,30.9
2023-02-06T06:39:20.190Z,29.2
2023-02-06T06:40:28.650Z,29.2
2023-02-06T06:41:36.899Z,28.4
2023-02-06T06:42:44.319Z,27.5
2023-02-06T06:43:53.715Z,28.1
2023-02-06T06:45:02.056Z,27
2023-02-06T06:46:09.699Z,28
2023-02-06T06:47:17.285Z,25.6
2023-02-06T06:48:24.500Z,27.4
2023-02-06T06:49:33.059Z,26.9
2023-02-06T06:50:42.179Z,27
2023-02-06T06:51:49.838Z,25.9
2023-02-06T06:52:58.218Z,26.9
2023-02-06T06:54:06.788Z,26
2023-02-06T06:55:14.514Z,25.5
2023-02-06T06:56:22.149Z,26.5
2023-02-06T06:57:35.439Z,25.9
2023-02-06T06:58:50.326Z,25.4
2023-02-06T06:59:58.838Z,26.2
2023-02-06T07:01:07.738Z,26.3
2023-02-06T07:02:18.384Z,25.4
2023-02-06T07:03:26.077Z,27.3
2023-02-06T07:04:36.252Z,26.6
2023-02-06T07:05:46.068Z,25.7
2023-02-06T07:06:54.963Z,26.9
2023-02-06T07:08:04.486Z,25.6
2023-02-06T07:09:13.753Z,26.8
2023-02-06T07:10:20.962Z,26.3
2023-02-06T07:11:30.403Z,26.9
2023-02-06T07:12:39.004Z,25.6
2023-02-06T07:13:47.906Z,26.9
2023-02-06T07:14:57.135Z,25.2
2023-02-06T07:16:04.612Z,26.5
2023-02-06T07:17:12.516Z,28.3
2023-02-06T07:18:20.360Z,28.7
2023-02-06T07:19:29.077Z,28.6
2023-02-06T07:20:38.284Z,27.7
2023-02-06T07:21:49.044Z,29.6
2023-02-06T07:22:56.835Z,29
2023-02-06T07:24:05.128Z,30.1
2023-02-06T07:25:12.888Z,30.8
2023-02-06T07:26:21.548Z,32.2
2023-02-06T07:27:30.099Z,33.5
2023-02-06T07:28:38.187Z,33.7
2023-02-06T07:29:46.014Z,34.6
2023-02-06T07:30:54.274Z,34.6
2023-02-06T07:32:04.936Z,36.2
2023-02-06T07:33:12.122Z,35.9
2023-02-06T07:34:19.423Z,36.4
2023-02-06T07:35:31.270Z,33.8
2023-02-06T07:36:39.906Z,34.8
2023-02-06T07:37:48.047Z,35.2
2023-02-06T07:39:00.085Z,39.5
2023-02-06T07:40:07.309Z,43.8
2023-02-06T07:41:15.092Z,43.3
2023-02-06T07:42:24.112Z,45
2023-02-06T07:43:31.276Z,41.7
2023-02-06T07:44:40.645Z,40.9
2023-02-06T07:45:50.016Z,38.6
2023-02-06T07:46:59.751Z,36.7
2023-02-06T07:48:07.040Z,30.4
2023-02-06T07:49:15.263Z,29.9
2023-02-06T07:50:23.931Z,29.8
2023-02-06T07:51:32.218Z,30.1
2023-02-06T07:52:42.554Z,30.9
2023-02-06T07:53:50.027Z,29.8
2023-02-06T07:54:57.990Z,28.4
2023-02-06T07:56:05.677Z,30.5
2023-02-06T07:57:16.537Z,27.5
2023-02-06T07:58:24.029Z,30.1
2023-02-06T07:59:32.419Z,29.3
2023-02-06T08:00:40.459Z,28.5
2023-02-06T08:01:48.159Z,30.1
2023-02-06T08:02:56.356Z,29.5
2023-02-06T08:04:04.513Z,31.7
2023-02-06T08:05:13.601Z,33.4
2023-02-06T08:06:24.333Z,31.2
2023-02-06T08:07:31.428Z,30.8
2023-02-06T08:08:39.177Z,29.8
2023-02-06T08:09:47.307Z,31.1
2023-02-06T08:10:54.510Z,29.8
2023-02-06T08:12:03.110Z,28.3
2023-02-06T08:13:11.550Z,27.6
2023-02-06T08:14:21.631Z,28.4
2023-02-06T08:15:31.046Z,28.9
2023-02-06T08:16:39.332Z,29.2
2023-02-06T08:17:47.007Z,30.8
2023-02-06T08:18:55.198Z,30.9
2023-02-06T08:20:03.174Z,29.1
2023-02-06T08:21:10.849Z,27.4
2023-02-06T08:22:24.050Z,26.7
2023-02-06T08:23:32.590Z,26.7
2023-02-06T08:24:39.950Z,27.1
2023-02-06T08:25:50.710Z,29.1
2023-02-06T08:26:58.746Z,27.4
2023-02-06T08:28:08.258Z,25.9
2023-02-06T08:29:15.466Z,27.4
2023-02-06T08:30:24.272Z,27.8
2023-02-06T08:31:33.392Z,26.9
2023-02-06T08:32:40.954Z,27.1
2023-02-06T08:33:49.350Z,26.8
2023-02-06T08:34:57.521Z,27
2023-02-06T08:36:07.446Z,28.1
2023-02-06T08:37:15.882Z,28.5
2023-02-06T08:38:24.062Z,27.3
2023-02-06T08:39:31.967Z,26.9
2023-02-06T08:40:40.810Z,26
2023-02-06T08:41:52.002Z,23.6
2023-02-06T08:42:59.990Z,24.5
2023-02-06T08:44:08.980Z,24.3
2023-02-06T08:45:16.603Z,25.1
2023-02-06T08:46:24.816Z,25.5
2023-02-06T08:47:33.145Z,30.8
2023-02-06T08:48:41.447Z,24.6
2023-02-06T08:49:49.840Z,24.4
2023-02-06T08:50:57.220Z,23.6
2023-02-06T08:52:06.112Z,20
2023-02-06T08:53:14.396Z,17.8
2023-02-06T08:54:22.741Z,17.4
2023-02-06T08:55:31.848Z,17
2023-02-06T08:56:40.882Z,17.7
2023-02-06T08:57:48.423Z,15.8
2023-02-06T08:58:56.264Z,16.2
2023-02-06T09:00:05.315Z,15.8
2023-02-06T09:01:14.504Z,17
2023-02-06T09:02:22.254Z,17.3
2023-02-06T09:03:30.576Z,17.6
2023-02-06T09:04:41.659Z,16.3
2023-02-06T09:05:51.556Z,14.9
2023-02-06T09:07:04.266Z,14.5
2023-02-06T09:08:13.303Z,15.4
2023-02-06T09:09:20.600Z,15.8
2023-02-06T09:10:28.394Z,14.1
2023-02-06T09:11:36.509Z,14.7
2023-02-06T09:12:45.061Z,15.5
2023-02-06T09:13:54.032Z,14.8
2023-02-06T09:15:03.758Z,15.4
2023-02-06T09:16:12.302Z,15.1
2023-02-06T09:17:23.713Z,14.8
2023-02-06T09:18:32.552Z,13.6
2023-02-06T09:19:41.372Z,14
2023-02-06T09:20:48.737Z,13.7
2023-02-06T09:21:56.360Z,13.5
2023-02-06T09:23:04.464Z,15
2023-02-06T09:24:12.645Z,14.7
2023-02-06T09:25:20.860Z,14
2023-02-06T09:26:28.475Z,15
2023-02-06T09:27:37.215Z,15.1
2023-02-06T09:28:45.093Z,14.9
2023-02-06T09:29:58.903Z,14
2023-02-06T09:31:06.813Z,14
2023-02-06T09:32:15.122Z,14.8
2023-02-06T09:33:24.149Z,15.2
2023-02-06T09:34:35.233Z,15.4
2023-02-06T09:35:45.612Z,14.7
2023-02-06T09:36:53.816Z,15.7
2023-02-06T09:38:00.881Z,14.2
2023-02-06T09:39:08.247Z,14.2
2023-02-06T09:40:16.226Z,14.8
2023-02-06T09:41:24.960Z,15
2023-02-06T09:42:38.497Z,14.5
2023-02-06T09:43:46.025Z,16
2023-02-06T09:44:54.384Z,119
2023-02-06T09:46:04.814Z,18.6
2023-02-06T09:47:12.364Z,18.6
2023-02-06T09:48:29.114Z,15
2023-02-06T09:49:37.829Z,20.7
2023-02-06T09:50:47.950Z,15.9
2023-02-06T09:52:06.629Z,15.5
2023-02-06T09:53:24.625Z,19.2
2023-02-06T09:54:38.205Z,14.6
2023-02-06T09:55:54.143Z,15.2
2023-02-06T09:57:04.494Z,14.1
2023-02-06T09:58:12.840Z,13.1
2023-02-06T09:59:23.904Z,12.6
2023-02-06T10:00:38.200Z,12.8
2023-02-06T10:01:52.716Z,13.3
2023-02-06T10:03:11.099Z,12.2
2023-02-06T10:04:23.921Z,12.8
2023-02-06T10:05:39.234Z,12.2
2023-02-06T10:06:52.580Z,12.9
2023-02-06T10:08:02.913Z,12.1
2023-02-06T10:09:18.102Z,12.8
2023-02-06T10:10:34.216Z,13.2
2023-02-06T10:11:46.542Z,13.3
2023-02-06T10:12:56.517Z,12.4
2023-02-06T10:14:05.559Z,13
2023-02-06T10:15:20.698Z,14.2
2023-02-06T10:16:34.226Z,12.3
2023-02-06T10:17:48.165Z,12.6
2023-02-06T10:19:00.798Z,13.7
2023-02-06T10:20:19.248Z,13.7
2023-02-06T10:21:33.588Z,14.9
2023-02-06T10:22:44.550Z,14
2023-02-06T10:23:57.076Z,14.6
2023-02-06T10:25:14.549Z,14.5
2023-02-06T10:26:32.267Z,16.2
2023-02-06T10:27:39.853Z,14.9
2023-02-06T10:28:48.680Z,14.1
2023-02-06T10:29:58.790Z,14.3
2023-02-06T10:31:07.108Z,13.7
2023-02-06T10:32:20.624Z,14.5
2023-02-06T10:33:37.368Z,13.8
2023-02-06T10:34:47.264Z,16.9
2023-02-06T10:35:56.257Z,18.1
2023-02-06T10:37:13.499Z,14.9
2023-02-06T10:38:32.565Z,14
2023-02-06T10:39:41.562Z,13.1
2023-02-06T10:40:57.638Z,12.7
2023-02-06T10:42:10.170Z,11.6
2023-02-06T10:43:26.324Z,11.5
2023-02-06T10:44:40.068Z,11
2023-02-06T10:45:53.028Z,11.7
2023-02-06T10:47:00.934Z,11.4
2023-02-06T10:48:09.113Z,10.4
2023-02-06T10:49:21.301Z,10.7
2023-02-06T10:50:37.590Z,11.2
2023-02-06T10:51:48.183Z,11
2023-02-06T10:52:59.407Z,11.4
2023-02-06T10:54:09.917Z,11.4
2023-02-06T10:55:18.189Z,11.4
2023-02-06T10:56:31.287Z,11.7
2023-02-06T10:57:44.734Z,12.1
2023-02-06T10:58:51.909Z,11.2
2023-02-06T11:00:03.506Z,12.9
2023-02-06T11:01:24.959Z,13.1
2023-02-06T11:02:20.885Z,13.5
2023-02-06T11:03:39.821Z,12.7
2023-02-06T11:04:49.122Z,13.7
2023-02-06T11:05:57.102Z,13.4
2023-02-06T11:07:04.531Z,13
2023-02-06T11:08:18.556Z,13.6
2023-02-06T11:09:32.222Z,13.4
2023-02-06T11:10:39.501Z,14.2
2023-02-06T11:11:48.225Z,15
2023-02-06T11:12:54.717Z,14.3
2023-02-06T11:14:11.451Z,14.1
2023-02-06T11:15:22.247Z,14.5
2023-02-06T11:16:34.678Z,15.4
2023-02-06T11:17:41.783Z,14.9
2023-02-06T11:18:49.271Z,15.7
2023-02-06T11:19:56.614Z,14.2
2023-02-06T11:21:04.906Z,12.3
2023-02-06T11:22:12.981Z,13.2
2023-02-06T11:23:21.016Z,11.6
2023-02-06T11:24:32.385Z,12.8
2023-02-06T11:25:40.281Z,12.1
2023-02-06T11:26:47.541Z,12.1
2023-02-06T11:28:01.591Z,11.8
2023-02-06T11:29:08.816Z,11.7
2023-02-06T11:30:24.880Z,11.5
2023-02-06T11:31:32.978Z,11.5
2023-02-06T11:33:03.558Z,11.4
2023-02-06T11:33:57.250Z,12.1
2023-02-06T11:35:04.692Z,11.5
2023-02-06T11:36:14.403Z,12.2
2023-02-06T11:37:31.204Z,13.1
2023-02-06T11:38:43.339Z,12.8
2023-02-06T11:40:00.590Z,13.5
2023-02-06T11:41:26.378Z,13.8
2023-02-06T11:42:34.551Z,13.4
2023-02-06T11:43:42.003Z,13.6
2023-02-06T11:44:50.569Z,14.6
2023-02-06T11:45:58.197Z,13
2023-02-06T11:47:09.422Z,12.1
2023-02-06T11:48:28.027Z,12.2
2023-02-06T11:49:39.451Z,12.8
2023-02-06T11:50:47.347Z,13.9
2023-02-06T11:51:55.860Z,14.2
2023-02-06T11:53:05.247Z,13.8
2023-02-06T11:54:14.911Z,13.7
2023-02-06T11:55:26.171Z,12.1
2023-02-06T11:56:34.523Z,12.2
2023-02-06T11:57:44.343Z,12.7
2023-02-06T11:58:52.010Z,12.6
2023-02-06T12:00:09.072Z,12.6
2023-02-06T12:01:26.065Z,13.3
2023-02-06T12:02:34.059Z,13.1
2023-02-06T12:03:41.687Z,13.3
2023-02-06T12:04:53.951Z,15.1
2023-02-06T12:06:06.730Z,15.8
2023-02-06T12:07:18.871Z,14.5
2023-02-06T12:08:26.101Z,14.6
2023-02-06T12:09:34.051Z,14.2
2023-02-06T12:10:43.052Z,12.8
2023-02-06T12:11:56.227Z,12.2
2023-02-06T12:13:09.091Z,13
2023-02-06T12:14:21.229Z,12.6
2023-02-06T12:15:45.775Z,12.8
2023-02-06T12:16:45.190Z,12
2023-02-06T12:17:53.784Z,11
2023-02-06T12:19:05.155Z,11.3
2023-02-06T12:20:12.062Z,12.9
2023-02-06T12:21:19.675Z,11.7
2023-02-06T12:22:38.875Z,14.9
2023-02-06T12:23:48.513Z,13.8
2023-02-06T12:25:01.782Z,12.4
2023-02-06T12:26:10.268Z,11.7
2023-02-06T12:27:20.646Z,12.8
2023-02-06T12:28:33.485Z,12.1
2023-02-06T12:29:42.909Z,11.9
2023-02-06T12:30:51.934Z,12.3
2023-02-06T12:32:00.555Z,11.3
2023-02-06T12:33:14.091Z,11.8
2023-02-06T12:34:25.518Z,11.5
2023-02-06T12:35:35.224Z,11.8
2023-02-06T12:36:53.947Z,12.1
2023-02-06T12:38:07.212Z,11.6
2023-02-06T12:39:22.812Z,10.9
2023-02-06T12:40:31.045Z,12
2023-02-06T12:41:38.467Z,11.7
2023-02-06T12:42:53.084Z,12.5
2023-02-06T12:44:01.595Z,11.7
2023-02-06T12:45:14.938Z,12.2
2023-02-06T12:46:33.545Z,11.7
2023-02-06T12:47:42.828Z,11.6
2023-02-06T12:48:51.719Z,11.8
2023-02-06T12:50:11.919Z,12.3
2023-02-06T12:51:26.600Z,11.6
2023-02-06T12:52:36.568Z,11.9
2023-02-06T12:53:49.835Z,11.6
2023-02-06T12:55:02.156Z,12.3
2023-02-06T12:56:19.842Z,12
2023-02-06T12:57:27.070Z,12.7
2023-02-06T12:58:35.194Z,12.7
2023-02-06T12:59:57.393Z,11.5
2023-02-06T13:00:58.190Z,12.2
2023-02-06T13:02:12.122Z,11.8
2023-02-06T13:03:30.193Z,12.5
2023-02-06T13:04:40.343Z,11.8
2023-02-06T13:05:51.169Z,12.4
2023-02-06T13:07:05.759Z,12
2023-02-06T13:08:15.730Z,11.9
2023-02-06T13:09:28.330Z,11.7
2023-02-06T13:10:36.931Z,12
2023-02-06T13:11:47.782Z,11.4
2023-02-06T13:12:56.685Z,12.3
2023-02-06T13:14:04.092Z,11.6
2023-02-06T13:15:19.945Z,11.3
2023-02-06T13:16:30.328Z,12.2
2023-02-06T13:17:41.148Z,11.5
2023-02-06T13:18:52.609Z,12.2
2023-02-06T13:20:01.728Z,12.8
2023-02-06T13:21:14.824Z,12.8
2023-02-06T13:22:26.809Z,13.2
2023-02-06T13:23:42.353Z,13
2023-02-06T13:24:56.568Z,13.1
2023-02-06T13:26:05.745Z,13
2023-02-06T13:27:13.330Z,12.8
2023-02-06T13:28:29.621Z,11.9
2023-02-06T13:29:40.830Z,12.7
2023-02-06T13:30:48.186Z,12.5
2023-02-06T13:32:04.790Z,12.3
2023-02-06T13:33:19.034Z,11.3
2023-02-06T13:34:28.050Z,11.8
2023-02-06T13:35:38.252Z,11.9
2023-02-06T13:36:56.901Z,12.1
2023-02-06T13:38:04.593Z,12.3
2023-02-06T13:39:20.423Z,12.3
2023-02-06T13:40:32.191Z,12.3
2023-02-06T13:41:41.610Z,13.1
2023-02-06T13:42:48.797Z,12.1
2023-02-06T13:43:57.673Z,12.8
2023-02-06T13:45:08.538Z,12.4
2023-02-06T13:46:27.206Z,11.7
2023-02-06T13:47:47.066Z,12.5
2023-02-06T13:49:00.449Z,12.2
2023-02-06T13:50:19.485Z,12.1
2023-02-06T13:51:37.321Z,12.5
2023-02-06T13:52:50.877Z,12.2
2023-02-06T13:54:03.802Z,11.6
2023-02-06T13:55:14.646Z,11.6
2023-02-06T13:56:32.872Z,11.6
2023-02-06T13:57:49.358Z,12.4
2023-02-06T13:59:05.020Z,12.4
2023-02-06T14:00:18.173Z,12.4
2023-02-06T14:01:27.144Z,12.3
2023-02-06T14:02:34.770Z,12.3
2023-02-06T14:03:42.762Z,12.1
2023-02-06T14:04:50.915Z,12.4
2023-02-06T14:05:59.109Z,12.1
2023-02-06T14:07:12.345Z,12.9
2023-02-06T14:08:30.596Z,12.1
2023-02-06T14:09:45.385Z,12.1
2023-02-06T14:11:00.381Z,12.3
2023-02-06T14:12:12.876Z,13.1
2023-02-06T14:13:36.984Z,12.8
2023-02-06T14:14:49.215Z,11.9
2023-02-06T14:16:09.210Z,12.1
2023-02-06T14:17:25.362Z,12.2
2023-02-06T14:18:36.586Z,11.7
2023-02-06T14:19:45.718Z,11.1
2023-02-06T14:21:04.648Z,11.9
2023-02-06T14:22:15.700Z,12
2023-02-06T14:23:31.161Z,11.5
2023-02-06T14:24:49.224Z,12.2
2023-02-06T14:26:08.283Z,11.7
2023-02-06T14:27:26.015Z,11.7
2023-02-06T14:28:40.050Z,11.7
2023-02-06T14:29:47.351Z,11.7
2023-02-06T14:30:57.592Z,12.1
2023-02-06T14:32:13.709Z,11.5
2023-02-06T14:33:22.774Z,12.2
2023-02-06T14:34:38.658Z,11.7
2023-02-06T14:35:56.626Z,12.1
2023-02-06T14:37:09.874Z,11.7
2023-02-06T14:38:27.402Z,12
2023-02-06T14:39:36.753Z,11.1
2023-02-06T14:40:54.698Z,11.4
2023-02-06T14:42:02.575Z,12.5
2023-02-06T14:43:10.778Z,12.1
2023-02-06T14:44:23.952Z,12
2023-02-06T14:45:38.699Z,12.3
2023-02-06T14:46:39.182Z,12.2
2023-02-06T14:47:47.675Z,12.4
2023-02-06T14:48:56.319Z,11.8
2023-02-06T14:50:03.600Z,12.3
2023-02-06T14:51:12.721Z,13
2023-02-06T14:52:33.141Z,11.8
2023-02-06T14:53:42.217Z,12.4
2023-02-06T14:54:50.162Z,12.6
2023-02-06T14:56:00.122Z,12.5
2023-02-06T14:57:13.930Z,12.3
2023-02-06T14:58:27.510Z,12.9
2023-02-06T14:59:41.385Z,12.6
2023-02-06T15:01:04.227Z,12.8
2023-02-06T15:02:14.898Z,13.1
2023-02-06T15:03:28.157Z,12.8
2023-02-06T15:04:37.593Z,13.1
2023-02-06T15:05:51.998Z,12.5
2023-02-06T15:07:07.764Z,12.4
2023-02-06T15:08:17.026Z,13.1
2023-02-06T15:09:24.841Z,11.5
2023-02-06T15:10:37.004Z,11.8
2023-02-06T15:11:46.281Z,12
2023-02-06T15:12:53.729Z,11.2
2023-02-06T15:14:02.050Z,12.3
2023-02-06T15:15:09.145Z,12.7
2023-02-06T15:16:20.641Z,11.9
2023-02-06T15:17:31.332Z,12.3
2023-02-06T15:18:40.116Z,12.6
2023-02-06T15:19:48.414Z,13
2023-02-06T15:20:55.899Z,12.6
2023-02-06T15:22:09.127Z,13.2
2023-02-06T15:23:18.269Z,12.7
2023-02-06T15:24:29.070Z,12.4
2023-02-06T15:25:49.464Z,13
2023-02-06T15:27:01.927Z,12.3
2023-02-06T15:28:16.782Z,12.5
2023-02-06T15:29:25.479Z,12
2023-02-06T15:30:34.704Z,12.5
2023-02-06T15:31:42.658Z,12.2
2023-02-06T15:32:50.844Z,12.3
2023-02-06T15:33:59.406Z,11.8
2023-02-06T15:35:07.913Z,11.6
2023-02-06T15:36:22.911Z,12.1
2023-02-06T15:37:34.413Z,12.5
2023-02-06T15:38:42.046Z,12
2023-02-06T15:39:50.677Z,13.5
2023-02-06T15:40:58.888Z,13.2
2023-02-06T15:42:06.467Z,13.6
2023-02-06T15:43:13.889Z,13.3